Time;durP1;ratioP1;P1;durP2;ratioP2;P2;SDS_P1;SDS_P2;PMS_P1;PMS_P2;Temp;Humidity;BMP_temperature;BMP_pressure;BME280_temperature;BME280_humidity;BME280_pressure;Samples;Min_cycle;Max_cycle;Signal;HPM_P1;HPM_P2
2023/10/16 00:02:43;;;;;;;3.80;2.28;;;;;;;;;;6308632;28;20514;-63
2023/10/16 00:05:45;;;;;;;3.47;2.47;;;;;;;;;;6310981;28;20051;-64
2023/10/16 00:08:47;;;;;;;5.32;1.95;;;;;;;;;;6305308;28;20109;-62
2023/10/16 00:11:50;;;;;;;4.60;2.70;;;;;;;;;;6307172;28;20586;-64
2023/10/16 00:14:52;;;;;;;4.85;2.15;;;;;;;;;;6311447;28;20044;-63
2023/10/16 00:17:56;;;;;;;3.95;3.25;;;;;;;;;;6311044;28;20044;-64
2023/10/16 00:21:00;;;;;;;4.18;2.25;;;;;;;;;;6309942;28;20605;-64
2023/10/16 00:24:07;;;;;;;4.63;1.73;;;;;;;;;;6309351;28;20051;-63
2023/10/16 00:27:09;;;;;;;3.25;2.25;;;;;;;;;;6308486;28;20565;-64
2023/10/16 00:30:11;;;;;;;4.70;1.77;;;;;;;;;;6308791;28;20036;-64
2023/10/16 00:33:14;;;;;;;7.38;2.35;;;;;;;;;;6308554;28;20473;-63
2023/10/16 00:36:16;;;;;;;3.58;1.85;;;;;;;;;;6309930;28;20036;-64
2023/10/16 00:39:20;;;;;;;7.43;2.72;;;;;;;;;;6306675;28;20569;-64
2023/10/16 00:42:23;;;;;;;2.92;2.00;;;;;;;;;;6310332;28;20223;-64
2023/10/16 00:45:25;;;;;;;3.08;1.73;;;;;;;;;;6310136;28;20802;-64
2023/10/16 00:48:28;;;;;;;2.65;2.10;;;;;;;;;;6308579;28;20125;-64
2023/10/16 00:51:32;;;;;;;3.08;2.17;;;;;;;;;;6310621;28;20083;-64
2023/10/16 00:54:43;;;;;;;3.67;2.45;;;;;;;;;;6309514;28;20040;-64
2023/10/16 00:57:48;;;;;;;3.05;2.45;;;;;;;;;;6308063;28;20044;-64
2023/10/16 01:00:50;;;;;;;11.02;2.35;;;;;;;;;;6308793;28;20584;-63
2023/10/16 01:03:57;;;;;;;3.45;3.03;;;;;;;;;;6291535;28;20567;-64
2023/10/16 01:07:01;;;;;;;4.47;2.22;;;;;;;;;;6307960;28;20162;-64
2023/10/16 01:10:10;;;;;;;5.43;3.30;;;;;;;;;;6310266;28;20071;-63
2023/10/16 01:13:12;;;;;;;6.15;2.83;;;;;;;;;;6308343;28;20090;-64
2023/10/16 01:16:16;;;;;;;4.68;3.08;;;;;;;;;;6308713;28;20036;-63
2023/10/16 01:19:19;;;;;;;3.88;3.00;;;;;;;;;;6310022;28;20048;-64
2023/10/16 01:22:22;;;;;;;4.18;3.78;;;;;;;;;;6306802;28;20260;-64
2023/10/16 01:25:24;;;;;;;4.63;3.25;;;;;;;;;;6307993;28;20046;-64
2023/10/16 01:28:27;;;;;;;5.15;3.15;;;;;;;;;;6309963;28;20212;-64
2023/10/16 01:31:30;;;;;;;5.72;4.82;;;;;;;;;;6310487;28;20048;-64
2023/10/16 01:34:32;;;;;;;5.50;3.90;;;;;;;;;;6309951;28;20075;-63
2023/10/16 01:37:38;;;;;;;7.93;4.93;;;;;;;;;;6310479;28;20044;-63
2023/10/16 01:44:09;;;;;;;;;;;;;;;;;;6306754;28;20051;-63
2023/10/16 01:47:15;;;;;;;6.85;5.15;;;;;;;;;;6310226;28;19923;-63
2023/10/16 01:50:21;;;;;;;5.85;5.10;;;;;;;;;;6308622;28;20044;-63
2023/10/16 01:53:32;;;;;;;8.10;5.65;;;;;;;;;;6309241;28;20088;-63
2023/10/16 01:56:34;;;;;;;9.05;7.45;;;;;;;;;;6309728;28;20082;-63
2023/10/16 01:59:39;;;;;;;9.85;7.47;;;;;;;;;;6308226;28;20050;-63
2023/10/16 02:02:41;;;;;;;9.05;6.78;;;;;;;;;;6309219;28;20511;-62
2023/10/16 02:05:45;;;;;;;9.45;7.22;;;;;;;;;;6309211;28;20056;-64
2023/10/16 02:08:48;;;;;;;10.07;8.23;;;;;;;;;;6312979;28;20040;-64
2023/10/16 02:11:50;;;;;;;8.80;7.03;;;;;;;;;;6313692;28;20055;-64
2023/10/16 02:14:53;;;;;;;10.50;5.50;;;;;;;;;;6310662;28;20136;-64
2023/10/16 02:17:55;;;;;;;9.02;7.35;;;;;;;;;;6311675;28;20051;-64
2023/10/16 02:20:58;;;;;;;8.68;5.97;;;;;;;;;;6313323;28;20175;-64
2023/10/16 02:24:03;;;;;;;10.48;7.55;;;;;;;;;;6313889;28;20047;-65
2023/10/16 02:27:10;;;;;;;13.15;8.70;;;;;;;;;;6312759;28;20040;-64
2023/10/16 02:30:35;;;;;;;9.20;5.70;;;;;;;;;;6310628;28;20044;-65
2023/10/16 02:33:38;;;;;;;8.02;6.28;;;;;;;;;;6311324;28;20104;-64
2023/10/16 02:36:40;;;;;;;6.78;5.35;;;;;;;;;;6313569;28;20185;-64
2023/10/16 02:39:50;;;;;;;8.27;6.03;;;;;;;;;;6313749;28;20044;-65
2023/10/16 02:42:56;;;;;;;7.03;5.07;;;;;;;;;;6313532;28;20048;-64
2023/10/16 02:46:01;;;;;;;6.53;5.05;;;;;;;;;;6314125;28;20044;-64
2023/10/16 02:49:03;;;;;;;8.43;5.03;;;;;;;;;;6313683;28;20179;-64
2023/10/16 02:52:06;;;;;;;8.90;6.45;;;;;;;;;;6314303;28;20044;-64
2023/10/16 02:55:10;;;;;;;9.10;7.32;;;;;;;;;;6313382;28;20447;-64
2023/10/16 02:58:12;;;;;;;8.75;6.95;;;;;;;;;;6310880;28;20127;-64
2023/10/16 03:01:18;;;;;;;8.15;6.85;;;;;;;;;;6312372;28;20566;-65
2023/10/16 03:04:23;;;;;;;;;;;;;;;;;;6312221;28;20047;-64
2023/10/16 03:07:25;;;;;;;11.68;7.35;;;;;;;;;;6312774;28;19924;-64
2023/10/16 03:10:30;;;;;;;9.07;6.07;;;;;;;;;;6313155;28;20054;-64
2023/10/16 03:13:35;;;;;;;8.45;6.13;;;;;;;;;;6313038;28;20123;-63
2023/10/16 03:16:37;;;;;;;7.80;6.78;;;;;;;;;;6313038;28;20044;-64
2023/10/16 03:19:40;;;;;;;8.55;6.15;;;;;;;;;;6312266;28;20059;-63
2023/10/16 03:22:42;;;;;;;9.15;6.40;;;;;;;;;;6312557;28;20066;-63
2023/10/16 03:28:47;;;;;;;9.73;6.93;;;;;;;;;;6311826;28;20052;-63
2023/10/16 03:31:49;;;;;;;8.05;6.05;;;;;;;;;;6311796;28;20040;-63
2023/10/16 03:34:51;;;;;;;8.45;6.47;;;;;;;;;;6312932;28;20044;-63
2023/10/16 03:37:54;;;;;;;11.25;7.35;;;;;;;;;;6300429;28;20052;-63
2023/10/16 03:40:58;;;;;;;9.90;6.07;;;;;;;;;;6311243;28;20550;-64
2023/10/16 03:44:07;;;;;;;8.15;6.22;;;;;;;;;;6311419;28;20072;-64
2023/10/16 03:47:11;;;;;;;8.65;6.95;;;;;;;;;;6312098;28;20451;-63
2023/10/16 03:50:13;;;;;;;9.05;7.45;;;;;;;;;;6311147;28;20047;-64
2023/10/16 03:53:16;;;;;;;8.10;5.35;;;;;;;;;;6311129;28;20073;-64
2023/10/16 03:56:19;;;;;;;7.80;6.75;;;;;;;;;;6310995;28;20412;-62
2023/10/16 03:59:21;;;;;;;7.20;5.00;;;;;;;;;;6310770;28;20059;-64
2023/10/16 04:02:23;;;;;;;12.75;7.07;;;;;;;;;;6310630;28;20051;-63
2023/10/16 04:08:47;;;;;;;9.80;7.18;;;;;;;;;;6310503;28;20082;-63
2023/10/16 04:11:54;;;;;;;9.25;6.60;;;;;;;;;;6301699;28;20482;-62
2023/10/16 04:15:03;;;;;;;7.80;5.95;;;;;;;;;;6308826;28;20059;-63
2023/10/16 04:18:09;;;;;;;8.43;5.78;;;;;;;;;;6304228;28;20730;-64
2023/10/16 04:27:34;;;;;;;7.70;5.60;;;;;;;;;;6293739;28;20167;-66
2023/10/16 04:30:39;;;;;;;7.22;5.03;;;;;;;;;;6307196;28;20157;-68
2023/10/16 04:34:13;;;;;;;;;;;;;;;;;;6308811;28;20040;-65
2023/10/16 04:43:37;;;;;;;6.32;5.13;;;;;;;;;;6307855;28;20044;-63
2023/10/16 04:46:55;;;;;;;10.98;7.60;;;;;;;;;;6308214;28;20043;-74
2023/10/16 04:50:07;;;;;;;8.23;6.65;;;;;;;;;;6308424;28;20133;-65
2023/10/16 04:53:14;;;;;;;8.35;5.43;;;;;;;;;;6309135;28;20081;-63
2023/10/16 04:56:29;;;;;;;6.45;4.57;;;;;;;;;;6313475;28;20130;-73
2023/10/16 04:59:37;;;;;;;6.28;4.72;;;;;;;;;;6313451;28;20093;-73
2023/10/16 05:02:44;;;;;;;8.05;5.45;;;;;;;;;;6311004;28;20059;-73
2023/10/16 05:05:56;;;;;;;6.70;5.53;;;;;;;;;;6296692;28;20082;-73
2023/10/16 05:15:41;;;;;;;6.65;4.82;;;;;;;;;;6309258;28;20044;-73
2023/10/16 05:18:46;;;;;;;9.82;4.90;;;;;;;;;;6301530;28;20090;-74
2023/10/16 05:22:02;;;;;;;7.45;4.40;;;;;;;;;;6306299;28;20056;-68
2023/10/16 06:15:21;;;;;;;6.47;4.75;;;;;;;;;;6290912;28;20049;-67
2023/10/16 06:18:23;;;;;;;7.75;4.18;;;;;;;;;;6310951;28;20574;-68
2023/10/16 06:21:25;;;;;;;10.20;4.82;;;;;;;;;;6303762;28;20059;-67
2023/10/16 06:24:33;;;;;;;10.30;5.97;;;;;;;;;;6307002;28;20048;-68
2023/10/16 06:27:38;;;;;;;10.32;4.70;;;;;;;;;;6303464;28;20051;-67
2023/10/16 06:30:41;;;;;;;11.57;5.28;;;;;;;;;;6312944;28;20600;-67
2023/10/16 06:33:43;;;;;;;6.00;3.72;;;;;;;;;;6313365;28;20058;-66
2023/10/16 06:36:45;;;;;;;6.20;3.83;;;;;;;;;;6313694;28;20063;-67
2023/10/16 06:39:49;;;;;;;4.93;3.53;;;;;;;;;;6304898;28;20142;-67
2023/10/16 06:43:09;;;;;;;6.53;5.22;;;;;;;;;;6312824;28;21167;-67
2023/10/16 06:46:25;;;;;;;7.70;5.25;;;;;;;;;;6340544;27;20056;-66
2023/10/16 06:49:35;;;;;;;5.75;3.13;;;;;;;;;;6308229;28;20518;-66
2023/10/16 06:52:39;;;;;;;5.60;2.88;;;;;;;;;;6312955;28;20130;-66
2023/10/16 06:55:42;;;;;;;6.40;3.95;;;;;;;;;;6311179;28;20052;-67
2023/10/16 06:58:45;;;;;;;8.68;4.30;;;;;;;;;;6311192;28;20079;-67
2023/10/16 07:01:47;;;;;;;5.30;3.80;;;;;;;;;;6309128;28;20059;-67
2023/10/16 07:04:49;;;;;;;6.38;4.05;;;;;;;;;;6305810;28;20052;-64
2023/10/16 07:07:53;;;;;;;6.70;4.18;;;;;;;;;;6308565;28;20072;-63
2023/10/16 07:11:03;;;;;;;5.88;3.08;;;;;;;;;;6301821;28;20063;-63
2023/10/16 07:14:12;;;;;;;5.10;4.38;;;;;;;;;;6305427;28;20435;-63
2023/10/16 07:17:14;;;;;;;6.90;3.25;;;;;;;;;;6308765;28;20117;-63
2023/10/16 07:20:24;;;;;;;6.57;4.40;;;;;;;;;;6308445;28;20450;-63
2023/10/16 07:23:34;;;;;;;5.10;3.20;;;;;;;;;;6308143;28;20558;-63
2023/10/16 07:26:38;;;;;;;5.60;4.20;;;;;;;;;;6310352;28;20040;-62
2023/10/16 07:29:43;;;;;;;5.18;3.22;;;;;;;;;;6304760;28;20043;-63
2023/10/16 07:32:45;;;;;;;6.20;3.08;;;;;;;;;;6311408;28;20044;-63
2023/10/16 07:35:49;;;;;;;4.90;2.97;;;;;;;;;;6309853;28;20456;-63
2023/10/16 07:38:51;;;;;;;8.30;3.78;;;;;;;;;;6310106;28;20784;-63
2023/10/16 07:41:55;;;;;;;5.80;2.50;;;;;;;;;;6309547;28;20673;-63
2023/10/16 07:44:57;;;;;;;8.00;2.65;;;;;;;;;;6311167;28;20111;-63
2023/10/16 07:48:17;;;;;;;5.13;3.58;;;;;;;;;;6306769;28;20052;-63
2023/10/16 07:51:21;;;;;;;5.43;3.40;;;;;;;;;;6310666;28;20217;-63
2023/10/16 07:54:23;;;;;;;4.20;2.25;;;;;;;;;;6305951;28;20066;-64
2023/10/16 07:57:27;;;;;;;4.30;2.65;;;;;;;;;;6303110;28;20044;-63
2023/10/16 08:00:41;;;;;;;4.15;2.17;;;;;;;;;;6308797;28;20050;-62
2023/10/16 08:03:48;;;;;;;10.13;1.83;;;;;;;;;;6308623;28;20052;-64
2023/10/16 08:06:56;;;;;;;6.88;2.15;;;;;;;;;;6305873;28;20064;-64
2023/10/16 08:10:40;;;;;;;4.93;2.55;;;;;;;;;;6303097;28;20059;-64
2023/10/16 08:13:24;;;;;;;4.40;2.63;;;;;;;;;;6303420;28;20040;-63
2023/10/16 08:16:26;;;;;;;3.85;2.25;;;;;;;;;;6299906;28;20044;-63
2023/10/16 08:19:31;;;;;;;4.25;1.90;;;;;;;;;;6308032;28;20040;-63
2023/10/16 08:22:33;;;;;;;3.20;1.60;;;;;;;;;;6309715;28;20047;-63
2023/10/16 08:25:35;;;;;;;3.75;3.13;;;;;;;;;;6311132;28;20043;-64
2023/10/16 08:28:44;;;;;;;4.10;2.00;;;;;;;;;;6305147;28;20032;-63
2023/10/16 08:32:16;;;;;;;3.72;1.92;;;;;;;;;;6306942;28;20125;-64
2023/10/16 08:35:10;;;;;;;4.20;1.83;;;;;;;;;;6304476;28;20060;-63
2023/10/16 08:38:20;;;;;;;3.30;1.90;;;;;;;;;;6310988;28;20565;-63
2023/10/16 08:41:42;;;;;;;3.75;1.70;;;;;;;;;;6307562;28;20115;-64
2023/10/16 08:44:51;;;;;;;3.55;2.40;;;;;;;;;;6305977;28;20052;-64
2023/10/16 08:47:53;;;;;;;9.45;2.42;;;;;;;;;;6303172;28;20036;-63
2023/10/16 08:50:58;;;;;;;4.60;2.30;;;;;;;;;;6287518;28;20056;-63
2023/10/16 08:54:05;;;;;;;7.07;1.83;;;;;;;;;;6297229;28;20048;-63
2023/10/16 08:57:10;;;;;;;8.00;1.65;;;;;;;;;;6302142;28;20043;-64
2023/10/16 09:00:23;;;;;;;4.03;2.72;;;;;;;;;;6299595;28;20040;-63
2023/10/16 09:03:26;;;;;;;9.57;2.08;;;;;;;;;;6304045;28;20058;-63
2023/10/16 09:06:29;;;;;;;2.33;1.23;;;;;;;;;;6303982;28;20569;-64
2023/10/16 09:09:32;;;;;;;3.47;1.73;;;;;;;;;;6305251;28;20123;-65
2023/10/16 09:12:44;;;;;;;3.88;2.63;;;;;;;;;;6303482;28;20185;-65
2023/10/16 09:15:46;;;;;;;4.30;2.05;;;;;;;;;;6305701;28;20048;-65
2023/10/16 09:18:51;;;;;;;3.58;1.73;;;;;;;;;;6313668;28;20055;-65
2023/10/16 09:21:53;;;;;;;6.53;1.83;;;;;;;;;;6313065;28;20048;-65
2023/10/16 09:24:58;;;;;;;2.70;1.23;;;;;;;;;;6304770;28;20122;-65
2023/10/16 09:28:01;;;;;;;2.17;1.27;;;;;;;;;;6311134;28;20150;-66
2023/10/16 09:31:06;;;;;;;4.30;1.27;;;;;;;;;;6313985;28;20164;-66
2023/10/16 09:34:17;;;;;;;3.20;2.38;;;;;;;;;;6312967;28;20648;-66
2023/10/16 09:37:24;;;;;;;1.60;1.23;;;;;;;;;;6313014;28;20044;-65
2023/10/16 09:40:37;;;;;;;2.33;1.55;;;;;;;;;;6310476;28;20051;-65
2023/10/16 09:43:42;;;;;;;1.80;0.70;;;;;;;;;;6312359;28;20048;-64
2023/10/16 09:49:49;;;;;;;3.30;2.13;;;;;;;;;;6314012;28;20102;-65
2023/10/16 09:52:51;;;;;;;2.17;1.13;;;;;;;;;;6309396;28;20057;-65
2023/10/16 09:55:58;;;;;;;3.22;1.98;;;;;;;;;;6311248;28;20728;-65
2023/10/16 09:59:02;;;;;;;2.92;1.20;;;;;;;;;;6304150;28;20049;-65
2023/10/16 10:02:05;;;;;;;3.47;1.60;;;;;;;;;;6308078;28;20053;-65
2023/10/16 10:05:12;;;;;;;4.22;2.67;;;;;;;;;;6312660;28;20052;-65
2023/10/16 10:08:38;;;;;;;3.58;1.80;;;;;;;;;;6309913;28;20055;-65
2023/10/16 10:12:09;;;;;;;4.25;2.28;;;;;;;;;;6310065;28;20105;-65
2023/10/16 10:15:19;;;;;;;3.47;1.42;;;;;;;;;;6309948;28;20063;-64
2023/10/16 10:18:42;;;;;;;5.68;1.83;;;;;;;;;;6313511;28;20036;-65
2023/10/16 10:21:45;;;;;;;3.63;1.75;;;;;;;;;;6311492;28;20558;-65
2023/10/16 10:24:51;;;;;;;3.78;1.83;;;;;;;;;;6312304;28;20055;-64
2023/10/16 10:27:55;;;;;;;3.83;2.42;;;;;;;;;;6310599;28;20036;-66
2023/10/16 10:31:04;;;;;;;5.15;2.00;;;;;;;;;;6312900;28;20052;-66
2023/10/16 10:34:36;;;;;;;4.68;2.35;;;;;;;;;;6313284;28;20048;-67
2023/10/16 10:37:45;;;;;;;3.97;2.33;;;;;;;;;;6299392;28;20718;-66
2023/10/16 10:41:11;;;;;;;2.92;1.75;;;;;;;;;;6307556;28;20048;-66
2023/10/16 10:44:14;;;;;;;4.22;1.73;;;;;;;;;;6304909;28;20056;-66
2023/10/16 10:47:30;;;;;;;6.00;2.22;;;;;;;;;;6310004;28;20104;-66
2023/10/16 10:50:34;;;;;;;3.55;2.17;;;;;;;;;;6305083;28;20229;-65
2023/10/16 10:53:36;;;;;;;4.53;2.42;;;;;;;;;;6308437;28;20522;-65
2023/10/16 10:56:53;;;;;;;2.55;1.75;;;;;;;;;;6312423;28;20177;-66
2023/10/16 10:59:56;;;;;;;4.60;1.80;;;;;;;;;;6313479;28;20545;-65
2023/10/16 11:06:03;;;;;;;3.13;2.13;;;;;;;;;;6309377;28;20059;-66
2023/10/16 11:09:12;;;;;;;3.03;1.23;;;;;;;;;;6308939;28;20032;-66
2023/10/16 11:12:14;;;;;;;1.88;0.90;;;;;;;;;;6308127;28;20078;-65
2023/10/16 11:15:16;;;;;;;1.42;0.75;;;;;;;;;;6310029;28;20055;-65
2023/10/16 11:18:19;;;;;;;2.53;0.77;;;;;;;;;;6309995;28;20121;-65
2023/10/16 11:21:25;;;;;;;1.92;0.80;;;;;;;;;;6306802;28;20114;-66
2023/10/16 11:24:27;;;;;;;1.88;0.98;;;;;;;;;;6311943;28;20055;-65
2023/10/16 11:27:30;;;;;;;1.55;1.05;;;;;;;;;;6312382;28;20048;-65
2023/10/16 11:30:38;;;;;;;3.10;1.02;;;;;;;;;;6303533;28;20063;-66
2023/10/16 11:33:47;;;;;;;4.03;2.63;;;;;;;;;;6309329;28;20549;-65
2023/10/16 11:36:50;;;;;;;2.53;1.42;;;;;;;;;;6306530;28;20056;-65
2023/10/16 11:39:58;;;;;;;2.33;1.20;;;;;;;;;;6308939;28;20129;-65
2023/10/16 11:43:01;;;;;;;3.00;0.93;;;;;;;;;;6310924;28;20074;-65
2023/10/16 11:46:27;;;;;;;1.85;0.85;;;;;;;;;;6309979;28;20044;-66
2023/10/16 11:49:37;;;;;;;2.15;0.98;;;;;;;;;;6310505;28;20525;-65
2023/10/16 11:52:40;;;;;;;2.35;1.33;;;;;;;;;;6307808;28;20070;-65
2023/10/16 11:55:45;;;;;;;2.35;0.93;;;;;;;;;;6311836;28;20044;-66
2023/10/16 11:58:47;;;;;;;1.83;1.00;;;;;;;;;;6310357;28;20044;-65
2023/10/16 12:01:52;;;;;;;1.92;0.88;;;;;;;;;;6306773;28;20883;-65
2023/10/16 12:05:05;;;;;;;2.55;1.73;;;;;;;;;;6312941;28;20051;-66
2023/10/16 12:08:08;;;;;;;3.63;1.02;;;;;;;;;;6311267;28;20059;-65
2023/10/16 12:11:14;;;;;;;2.25;1.38;;;;;;;;;;6305317;28;20044;-65
2023/10/16 12:14:19;;;;;;;2.00;1.10;;;;;;;;;;6302737;28;20062;-65
2023/10/16 12:17:23;;;;;;;1.67;0.70;;;;;;;;;;6305632;28;20047;-65
2023/10/16 12:20:27;;;;;;;2.63;1.35;;;;;;;;;;6310355;28;20047;-66
2023/10/16 12:23:29;;;;;;;3.38;1.33;;;;;;;;;;6310727;28;20047;-65
2023/10/16 12:26:31;;;;;;;3.72;1.00;;;;;;;;;;6304393;28;20525;-66
2023/10/16 12:29:33;;;;;;;4.45;1.27;;;;;;;;;;6309910;28;20044;-66
2023/10/16 12:32:35;;;;;;;2.83;1.45;;;;;;;;;;6308493;28;20064;-66
2023/10/16 12:35:38;;;;;;;2.75;2.00;;;;;;;;;;6312226;28;20129;-67
2023/10/16 12:38:40;;;;;;;2.92;1.17;;;;;;;;;;6310554;28;20040;-66
2023/10/16 12:41:43;;;;;;;2.55;1.38;;;;;;;;;;6307453;28;20044;-66
2023/10/16 12:44:45;;;;;;;4.78;1.20;;;;;;;;;;6302387;28;20044;-66
2023/10/16 12:47:47;;;;;;;2.88;0.73;;;;;;;;;;6309287;28;20071;-65
2023/10/16 12:50:53;;;;;;;3.45;1.35;;;;;;;;;;6305756;28;20275;-65
2023/10/16 12:54:12;;;;;;;4.30;2.08;;;;;;;;;;6310319;28;20216;-66
2023/10/16 12:57:15;;;;;;;3.60;2.15;;;;;;;;;;6309748;28;20036;-65
2023/10/16 13:00:19;;;;;;;5.68;1.48;;;;;;;;;;6310802;28;20489;-66
2023/10/16 13:03:22;;;;;;;4.22;1.30;;;;;;;;;;6308369;28;20044;-66
2023/10/16 13:06:26;;;;;;;4.00;1.60;;;;;;;;;;6308076;28;20047;-64
2023/10/16 13:09:30;;;;;;;8.25;3.13;;;;;;;;;;6310739;28;20542;-64
2023/10/16 13:12:32;;;;;;;3.92;1.52;;;;;;;;;;6307224;28;20052;-64
2023/10/16 13:15:35;;;;;;;3.97;1.60;;;;;;;;;;6308943;28;20044;-64
2023/10/16 13:18:37;;;;;;;4.57;2.05;;;;;;;;;;6309007;28;20147;-63
2023/10/16 13:21:41;;;;;;;5.75;2.00;;;;;;;;;;6307499;28;21821;-65
2023/10/16 13:24:44;;;;;;;3.85;1.88;;;;;;;;;;6311131;28;20060;-65
2023/10/16 13:27:49;;;;;;;3.40;1.65;;;;;;;;;;6309708;28;20048;-67
2023/10/16 13:30:52;;;;;;;4.40;1.48;;;;;;;;;;6307962;28;20205;-66
2023/10/16 13:33:56;;;;;;;3.45;1.52;;;;;;;;;;6312505;28;20154;-67
2023/10/16 13:37:08;;;;;;;2.85;1.30;;;;;;;;;;6311473;28;20479;-67
2023/10/16 13:40:21;;;;;;;4.53;1.63;;;;;;;;;;6314537;28;20048;-66
2023/10/16 13:43:24;;;;;;;3.17;1.77;;;;;;;;;;6309519;28;20044;-66
2023/10/16 13:46:26;;;;;;;3.20;0.93;;;;;;;;;;6310381;28;20040;-67
2023/10/16 13:49:28;;;;;;;3.95;1.33;;;;;;;;;;6316271;28;20048;-66
2023/10/16 13:52:31;;;;;;;4.07;1.05;;;;;;;;;;6311305;28;20070;-67
2023/10/16 13:55:32;;;;;;;5.90;1.40;;;;;;;;;;6312215;28;20570;-65
2023/10/16 13:58:35;;;;;;;5.15;0.95;;;;;;;;;;6307972;28;20040;-66
2023/10/16 14:01:40;;;;;;;3.47;1.27;;;;;;;;;;6294866;28;20059;-66
2023/10/16 14:04:46;;;;;;;4.03;1.30;;;;;;;;;;6315753;28;20040;-66
2023/10/16 14:07:48;;;;;;;5.43;1.45;;;;;;;;;;6315097;28;20056;-66
2023/10/16 14:10:52;;;;;;;3.67;1.52;;;;;;;;;;6314909;28;20052;-67
2023/10/16 14:13:54;;;;;;;4.93;1.27;;;;;;;;;;6315684;28;20582;-67
2023/10/16 14:17:16;;;;;;;3.10;1.10;;;;;;;;;;6313144;28;20040;-68
2023/10/16 14:20:34;;;;;;;4.82;1.58;;;;;;;;;;6316895;28;20598;-67
2023/10/16 14:23:38;;;;;;;4.07;1.35;;;;;;;;;;6314269;28;20446;-68
2023/10/16 14:26:40;;;;;;;3.35;1.30;;;;;;;;;;6316720;28;20050;-67
2023/10/16 14:29:45;;;;;;;2.78;1.05;;;;;;;;;;6315207;28;20052;-67
2023/10/16 14:32:48;;;;;;;2.90;1.05;;;;;;;;;;6312028;28;20144;-67
2023/10/16 14:35:51;;;;;;;4.60;1.23;;;;;;;;;;6310762;28;20044;-67
2023/10/16 14:38:54;;;;;;;2.83;1.27;;;;;;;;;;6314566;28;20059;-67
2023/10/16 14:42:01;;;;;;;3.05;1.40;;;;;;;;;;6313218;28;20522;-67
2023/10/16 14:45:06;;;;;;;3.45;1.20;;;;;;;;;;6313228;28;20059;-67
2023/10/16 14:48:09;;;;;;;7.53;1.38;;;;;;;;;;6312947;28;20530;-67
2023/10/16 14:51:18;;;;;;;3.35;1.30;;;;;;;;;;6311772;28;20514;-67
2023/10/16 14:54:23;;;;;;;3.55;1.50;;;;;;;;;;6312561;28;20518;-67
2023/10/16 14:57:25;;;;;;;6.00;1.30;;;;;;;;;;6312888;28;20040;-67
2023/10/16 15:00:31;;;;;;;5.15;1.13;;;;;;;;;;6312382;28;20063;-66
2023/10/16 15:03:33;;;;;;;6.05;1.30;;;;;;;;;;6314112;28;20143;-68
2023/10/16 15:06:35;;;;;;;3.55;1.50;;;;;;;;;;6315098;28;20050;-67
2023/10/16 15:09:37;;;;;;;3.53;2.05;;;;;;;;;;6316067;28;20063;-67
2023/10/16 15:12:39;;;;;;;3.17;1.27;;;;;;;;;;6316176;28;20044;-65
2023/10/16 15:15:43;;;;;;;3.25;1.45;;;;;;;;;;6308041;28;20585;-66
2023/10/16 15:18:45;;;;;;;3.42;1.77;;;;;;;;;;6315482;28;20052;-66
2023/10/16 15:21:48;;;;;;;3.22;1.92;;;;;;;;;;6315299;28;20052;-66
2023/10/16 15:24:50;;;;;;;3.60;2.60;;;;;;;;;;6310925;28;20055;-66
2023/10/16 15:27:52;;;;;;;5.93;1.85;;;;;;;;;;6314982;28;20508;-66
2023/10/16 15:30:54;;;;;;;4.35;1.45;;;;;;;;;;6315410;28;20051;-67
2023/10/16 15:33:57;;;;;;;3.78;2.80;;;;;;;;;;6308824;28;20055;-67
2023/10/16 15:37:00;;;;;;;3.70;1.45;;;;;;;;;;6312975;28;20048;-67
2023/10/16 15:40:03;;;;;;;4.15;2.28;;;;;;;;;;6308350;28;20416;-66
2023/10/16 15:43:05;;;;;;;3.97;1.73;;;;;;;;;;6315583;28;20044;-67
2023/10/16 15:46:23;;;;;;;5.00;1.83;;;;;;;;;;6312554;28;20060;-64
2023/10/16 15:49:26;;;;;;;3.15;1.85;;;;;;;;;;6314182;28;20052;-66
2023/10/16 15:52:28;;;;;;;3.50;1.80;;;;;;;;;;6313068;28;20056;-67
2023/10/16 15:55:31;;;;;;;3.58;1.23;;;;;;;;;;6309435;28;20135;-67
2023/10/16 15:58:33;;;;;;;5.07;1.83;;;;;;;;;;6314441;28;20681;-65
2023/10/16 16:01:35;;;;;;;2.97;1.40;;;;;;;;;;6315271;28;20181;-66
2023/10/16 16:04:43;;;;;;;3.55;1.70;;;;;;;;;;6316144;28;20044;-66
2023/10/16 16:07:45;;;;;;;8.07;2.00;;;;;;;;;;6307119;28;20048;-66
2023/10/16 16:10:48;;;;;;;7.53;1.77;;;;;;;;;;6307445;28;20055;-66
2023/10/16 16:13:51;;;;;;;2.95;1.63;;;;;;;;;;6308480;28;20127;-64
2023/10/16 16:16:53;;;;;;;3.35;2.15;;;;;;;;;;6313025;28;20043;-64
2023/10/16 16:19:55;;;;;;;3.60;1.80;;;;;;;;;;6309223;28;20070;-64
2023/10/16 16:22:57;;;;;;;2.88;2.05;;;;;;;;;;6313752;28;20052;-64
2023/10/16 16:26:00;;;;;;;4.25;1.75;;;;;;;;;;6308932;28;20147;-64
2023/10/16 16:29:03;;;;;;;3.67;1.80;;;;;;;;;;6312778;28;20054;-64
2023/10/16 16:32:06;;;;;;;5.40;2.15;;;;;;;;;;6311014;28;20075;-64
2023/10/16 16:35:18;;;;;;;3.72;2.13;;;;;;;;;;6308606;28;20048;-64
2023/10/16 16:38:20;;;;;;;3.38;1.90;;;;;;;;;;6312770;28;20039;-64
2023/10/16 16:41:24;;;;;;;5.25;1.95;;;;;;;;;;6310718;28;20290;-64
2023/10/16 16:44:26;;;;;;;3.58;2.67;;;;;;;;;;6308940;28;20541;-64
2023/10/16 16:47:28;;;;;;;4.43;2.33;;;;;;;;;;6310995;28;20044;-65
2023/10/16 16:50:30;;;;;;;4.10;1.70;;;;;;;;;;6309513;28;20048;-65
2023/10/16 16:53:32;;;;;;;5.03;2.88;;;;;;;;;;6309717;28;20040;-65
2023/10/16 16:56:37;;;;;;;9.38;2.38;;;;;;;;;;6312050;28;20135;-65
2023/10/16 16:59:40;;;;;;;5.68;2.63;;;;;;;;;;6310516;28;20096;-65
2023/10/16 17:02:42;;;;;;;4.47;2.08;;;;;;;;;;6316628;28;20570;-65
2023/10/16 17:05:45;;;;;;;6.80;2.08;;;;;;;;;;6304389;28;20056;-65
2023/10/16 17:08:49;;;;;;;9.55;3.78;;;;;;;;;;6312623;28;20079;-65
2023/10/16 17:11:51;;;;;;;6.90;2.10;;;;;;;;;;6309008;28;20054;-65
2023/10/16 17:14:53;;;;;;;4.38;2.22;;;;;;;;;;6309646;28;20052;-64
2023/10/16 17:17:57;;;;;;;6.22;2.10;;;;;;;;;;6306234;28;20056;-64
2023/10/16 17:21:00;;;;;;;9.00;5.45;;;;;;;;;;6309817;28;20056;-65
2023/10/16 17:24:03;;;;;;;8.80;2.70;;;;;;;;;;6305777;28;20137;-64
2023/10/16 17:27:05;;;;;;;4.07;2.05;;;;;;;;;;6310883;28;20135;-63
2023/10/16 17:30:08;;;;;;;20.38;8.13;;;;;;;;;;6311782;28;20544;-66
2023/10/16 17:33:11;;;;;;;8.57;4.38;;;;;;;;;;6310598;28;20051;-65
2023/10/16 17:36:14;;;;;;;13.88;5.28;;;;;;;;;;6309672;28;20056;-63
2023/10/16 17:39:18;;;;;;;6.43;4.28;;;;;;;;;;6317556;28;20044;-64
2023/10/16 17:42:20;;;;;;;6.30;2.33;;;;;;;;;;6314963;28;20054;-64
2023/10/16 17:45:23;;;;;;;4.47;2.40;;;;;;;;;;6315706;28;20052;-72
2023/10/16 17:48:25;;;;;;;8.02;3.20;;;;;;;;;;6317456;28;20074;-65
2023/10/16 17:51:32;;;;;;;9.30;3.92;;;;;;;;;;6315065;28;20043;-62
2023/10/16 17:54:35;;;;;;;7.40;2.00;;;;;;;;;;6313270;28;20044;-66
2023/10/16 17:57:37;;;;;;;3.92;1.73;;;;;;;;;;6315849;28;20044;-65
2023/10/16 18:00:42;;;;;;;4.50;2.38;;;;;;;;;;6317431;28;20048;-66
2023/10/16 18:03:45;;;;;;;4.70;3.47;;;;;;;;;;6316925;28;20771;-65
2023/10/16 18:06:49;;;;;;;4.55;2.90;;;;;;;;;;6310017;28;20048;-65
2023/10/16 18:09:52;;;;;;;11.45;2.80;;;;;;;;;;6316596;28;20062;-63
2023/10/16 18:12:55;;;;;;;5.55;2.47;;;;;;;;;;6310116;28;20055;-65
2023/10/16 18:16:01;;;;;;;4.05;1.92;;;;;;;;;;6317116;28;20052;-67
2023/10/16 18:19:03;;;;;;;5.63;2.38;;;;;;;;;;6311135;28;20063;-65
2023/10/16 18:22:05;;;;;;;5.57;2.85;;;;;;;;;;6309985;28;20040;-64
2023/10/16 18:25:08;;;;;;;7.68;4.65;;;;;;;;;;6314286;28;20071;-65
2023/10/16 18:28:12;;;;;;;8.75;2.40;;;;;;;;;;6313532;28;20050;-64
2023/10/16 18:31:14;;;;;;;3.60;2.08;;;;;;;;;;6312084;28;20265;-64
2023/10/16 18:34:18;;;;;;;3.83;2.17;;;;;;;;;;6311493;28;20187;-63
2023/10/16 18:37:20;;;;;;;4.68;2.08;;;;;;;;;;6304974;28;20047;-63
2023/10/16 18:40:22;;;;;;;6.22;1.90;;;;;;;;;;6312767;28;20072;-64
2023/10/16 18:43:24;;;;;;;3.50;2.03;;;;;;;;;;6310236;28;20054;-64
2023/10/16 18:46:26;;;;;;;7.13;2.08;;;;;;;;;;6310746;28;20052;-64
2023/10/16 18:49:28;;;;;;;10.63;4.32;;;;;;;;;;6307839;28;20052;-64
2023/10/16 18:52:30;;;;;;;18.25;7.85;;;;;;;;;;6310852;28;20052;-63
2023/10/16 18:55:32;;;;;;;37.58;16.33;;;;;;;;;;6313743;28;20130;-64
2023/10/16 18:58:35;;;;;;;27.02;10.57;;;;;;;;;;6312992;28;20082;-63
2023/10/16 19:01:40;;;;;;;17.33;8.45;;;;;;;;;;6308998;28;20043;-63
2023/10/16 19:04:42;;;;;;;15.38;5.97;;;;;;;;;;6313407;28;20039;-62
2023/10/16 19:07:46;;;;;;;15.48;5.97;;;;;;;;;;6303950;28;20086;-62
2023/10/16 19:10:49;;;;;;;6.72;3.35;;;;;;;;;;6312324;28;20884;-62
2023/10/16 19:13:52;;;;;;;10.20;4.38;;;;;;;;;;6310883;28;20047;-61
2023/10/16 19:16:54;;;;;;;7.68;3.40;;;;;;;;;;6313476;28;20052;-64
2023/10/16 19:19:57;;;;;;;7.32;3.28;;;;;;;;;;6313107;28;20190;-62
2023/10/16 19:22:59;;;;;;;7.32;3.65;;;;;;;;;;6312964;28;20546;-62
2023/10/16 19:26:06;;;;;;;11.43;3.72;;;;;;;;;;6312556;28;20048;-63
2023/10/16 19:29:08;;;;;;;6.70;4.03;;;;;;;;;;6310804;28;20056;-64
2023/10/16 19:32:14;;;;;;;4.80;2.80;;;;;;;;;;6311577;28;20068;-63
2023/10/16 19:35:16;;;;;;;32.63;15.63;;;;;;;;;;6311355;28;20055;-63
2023/10/16 19:38:18;;;;;;;11.57;5.35;;;;;;;;;;6308435;28;20822;-62
2023/10/16 19:41:21;;;;;;;5.15;3.20;;;;;;;;;;6313039;28;20052;-63
2023/10/16 19:44:23;;;;;;;5.72;3.00;;;;;;;;;;6306703;28;20146;-62
2023/10/16 19:47:25;;;;;;;4.80;2.28;;;;;;;;;;6314026;28;20052;-64
2023/10/16 19:50:27;;;;;;;4.70;2.92;;;;;;;;;;6303604;28;20422;-69
2023/10/16 19:53:30;;;;;;;4.82;2.08;;;;;;;;;;6312864;28;20048;-64
2023/10/16 19:56:33;;;;;;;5.50;2.47;;;;;;;;;;6312131;28;20429;-64